Time;durP1;ratioP1;P1;durP2;ratioP2;P2;SDS_P1;SDS_P2;PMS_P1;PMS_P2;Temp;Humidity;BMP_temperature;BMP_pressure;BME280_temperature;BME280_humidity;BME280_pressure;Samples;Min_cycle;Max_cycle;Signal;HPM_P1;HPM_P2
2024/03/23 00:02:10;;;;;;;63.10;9.27;;;;;;;;;;5084755;28;20436;-85
2024/03/23 00:04:37;;;;;;;62.63;8.90;;;;;;;;;;5086137;28;20443;-85
2024/03/23 00:07:04;;;;;;;64.87;9.57;;;;;;;;;;5098956;28;20869;-86
2024/03/23 00:09:33;;;;;;;62.60;9.00;;;;;;;;;;5090533;28;20471;-86
2024/03/23 00:12:01;;;;;;;63.90;9.43;;;;;;;;;;5075385;28;20455;-86
2024/03/23 00:14:30;;;;;;;62.83;9.23;;;;;;;;;;5083744;28;20920;-85
2024/03/23 00:16:58;;;;;;;66.10;9.70;;;;;;;;;;5087257;28;20463;-84
2024/03/23 00:19:27;;;;;;;62.97;9.43;;;;;;;;;;5096172;28;20446;-84
2024/03/23 00:21:55;;;;;;;63.70;9.70;;;;;;;;;;5087616;28;20439;-84
2024/03/23 00:24:24;;;;;;;62.07;8.50;;;;;;;;;;5088025;28;20512;-85
2024/03/23 00:26:52;;;;;;;67.80;9.93;;;;;;;;;;5089805;28;20467;-84
2024/03/23 00:29:22;;;;;;;67.30;10.33;;;;;;;;;;5090899;28;20478;-85
2024/03/23 00:31:50;;;;;;;64.20;9.30;;;;;;;;;;5106397;28;20469;-86
2024/03/23 00:34:19;;;;;;;65.27;10.00;;;;;;;;;;5098022;28;20532;-85
2024/03/23 00:36:47;;;;;;;62.93;9.57;;;;;;;;;;5097878;28;20451;-84
2024/03/23 00:39:16;;;;;;;63.70;10.13;;;;;;;;;;5088220;28;20440;-84
2024/03/23 00:41:44;;;;;;;62.87;9.20;;;;;;;;;;5097204;28;20438;-85
2024/03/23 00:44:14;;;;;;;64.57;9.90;;;;;;;;;;5091099;28;20442;-85
2024/03/23 00:46:42;;;;;;;69.30;9.80;;;;;;;;;;5090122;28;20970;-85
2024/03/23 00:49:11;;;;;;;63.50;8.80;;;;;;;;;;5087872;28;20476;-85
2024/03/23 00:51:39;;;;;;;66.50;9.47;;;;;;;;;;5096293;28;20439;-84
2024/03/23 00:54:08;;;;;;;62.50;9.07;;;;;;;;;;5098103;28;20944;-84
2024/03/23 00:56:34;;;;;;;62.63;9.30;;;;;;;;;;5089607;28;20452;-85
2024/03/23 00:59:01;;;;;;;63.27;9.43;;;;;;;;;;5085523;28;20487;-85
2024/03/23 01:01:27;;;;;;;63.17;9.33;;;;;;;;;;5093031;28;20493;-85
2024/03/23 01:03:55;;;;;;;64.60;8.80;;;;;;;;;;5089998;28;20496;-85
2024/03/23 01:06:21;;;;;;;63.90;9.33;;;;;;;;;;5090450;28;20504;-84
2024/03/23 01:08:48;;;;;;;63.70;10.17;;;;;;;;;;5089363;28;20487;-84
2024/03/23 01:11:16;;;;;;;65.47;10.43;;;;;;;;;;5092183;28;20439;-84
2024/03/23 01:13:43;;;;;;;65.07;10.50;;;;;;;;;;5081705;28;20443;-85
2024/03/23 01:16:09;;;;;;;63.47;10.47;;;;;;;;;;5093672;28;20483;-85
2024/03/23 01:18:36;;;;;;;65.20;9.10;;;;;;;;;;5086334;28;20459;-84
2024/03/23 01:21:03;;;;;;;63.37;10.07;;;;;;;;;;5089308;28;20439;-84
2024/03/23 01:23:30;;;;;;;63.73;8.87;;;;;;;;;;5082091;28;20437;-85
2024/03/23 01:25:56;;;;;;;63.90;9.43;;;;;;;;;;5087602;28;20468;-84
2024/03/23 01:28:25;;;;;;;63.63;10.00;;;;;;;;;;5081985;28;20436;-84
2024/03/23 01:30:51;;;;;;;63.77;9.40;;;;;;;;;;5084313;28;20483;-84
2024/03/23 01:33:18;;;;;;;64.40;10.07;;;;;;;;;;5084590;28;20456;-85
2024/03/23 01:35:45;;;;;;;64.77;9.73;;;;;;;;;;5093704;28;21036;-85
2024/03/23 01:38:12;;;;;;;65.40;9.53;;;;;;;;;;5092481;28;20444;-85
2024/03/23 01:40:38;;;;;;;63.57;9.57;;;;;;;;;;5085312;28;20448;-85
2024/03/23 01:43:06;;;;;;;62.03;9.30;;;;;;;;;;5088753;28;20826;-84
2024/03/23 01:45:34;;;;;;;61.93;9.63;;;;;;;;;;5090038;28;20486;-85
2024/03/23 01:48:02;;;;;;;63.00;9.53;;;;;;;;;;5099437;28;20443;-85
2024/03/23 01:50:28;;;;;;;64.80;9.70;;;;;;;;;;5103874;28;20471;-85
2024/03/23 01:52:55;;;;;;;62.93;10.53;;;;;;;;;;5099287;28;20439;-86
2024/03/23 01:55:21;;;;;;;63.37;9.90;;;;;;;;;;5107181;28;20512;-85
2024/03/23 01:57:49;;;;;;;63.23;9.80;;;;;;;;;;5083773;28;20497;-85
2024/03/23 02:00:15;;;;;;;64.43;9.20;;;;;;;;;;5088532;28;20435;-85
2024/03/23 02:02:45;;;;;;;61.40;9.10;;;;;;;;;;5089307;28;20495;-86
2024/03/23 02:05:11;;;;;;;62.97;9.67;;;;;;;;;;5090080;28;20904;-85
2024/03/23 02:07:39;;;;;;;64.30;9.13;;;;;;;;;;5080654;28;20456;-84
2024/03/23 02:10:06;;;;;;;67.10;9.77;;;;;;;;;;5085100;28;20548;-86
2024/03/23 02:12:34;;;;;;;66.33;10.10;;;;;;;;;;5086936;28;20432;-85
2024/03/23 02:15:00;;;;;;;64.27;8.70;;;;;;;;;;5104019;28;20440;-83
2024/03/23 02:17:27;;;;;;;64.53;10.37;;;;;;;;;;5101673;28;20455;-85
2024/03/23 02:19:55;;;;;;;64.40;9.67;;;;;;;;;;5103065;28;20532;-86
2024/03/23 02:22:22;;;;;;;62.53;8.83;;;;;;;;;;5079133;28;20447;-86
2024/03/23 02:24:50;;;;;;;63.63;9.70;;;;;;;;;;5089630;28;20444;-85
2024/03/23 02:27:17;;;;;;;60.67;8.47;;;;;;;;;;5086171;28;20493;-85
2024/03/23 02:29:44;;;;;;;62.37;7.90;;;;;;;;;;5088716;28;20640;-86
2024/03/23 02:32:11;;;;;;;61.40;7.30;;;;;;;;;;5104569;28;20470;-86
2024/03/23 02:34:38;;;;;;;61.20;7.97;;;;;;;;;;5095868;28;20435;-85
2024/03/23 02:37:10;;;;;;;63.87;7.60;;;;;;;;;;5076962;28;20528;-84
2024/03/23 02:39:38;;;;;;;63.00;8.17;;;;;;;;;;5084884;28;20531;-85
2024/03/23 02:42:06;;;;;;;60.20;5.90;;;;;;;;;;5072940;28;20444;-85
2024/03/23 02:44:33;;;;;;;58.27;5.60;;;;;;;;;;5088058;28;20811;-85
2024/03/23 02:46:59;;;;;;;58.70;4.63;;;;;;;;;;5084686;28;21036;-84
2024/03/23 02:49:27;;;;;;;61.47;4.63;;;;;;;;;;5086533;28;20488;-83
2024/03/23 02:51:53;;;;;;;58.20;4.43;;;;;;;;;;5089248;28;20435;-85
2024/03/23 02:54:20;;;;;;;57.93;4.60;;;;;;;;;;5085912;28;20437;-85
2024/03/23 02:56:46;;;;;;;58.17;4.10;;;;;;;;;;5092082;28;20459;-84
2024/03/23 02:59:15;;;;;;;58.70;3.90;;;;;;;;;;5085179;28;20451;-85
2024/03/23 03:01:41;;;;;;;60.27;3.60;;;;;;;;;;5076679;28;20960;-84
2024/03/23 03:04:08;;;;;;;58.83;3.57;;;;;;;;;;5084456;28;20443;-84
2024/03/23 03:06:35;;;;;;;56.57;3.27;;;;;;;;;;5084464;28;20516;-85
2024/03/23 03:09:02;;;;;;;56.97;4.13;;;;;;;;;;5081621;28;20439;-85
2024/03/23 03:11:28;;;;;;;57.57;3.57;;;;;;;;;;5080973;28;20466;-84
2024/03/23 03:13:55;;;;;;;57.87;4.07;;;;;;;;;;5090442;28;20442;-84
2024/03/23 03:16:23;;;;;;;57.27;3.77;;;;;;;;;;5084293;28;20524;-84
2024/03/23 03:18:50;;;;;;;58.50;3.70;;;;;;;;;;5092783;28;20435;-85
2024/03/23 03:21:16;;;;;;;57.37;4.00;;;;;;;;;;5088112;28;20501;-84
2024/03/23 03:23:44;;;;;;;57.87;3.30;;;;;;;;;;5089390;28;20919;-84
2024/03/23 03:26:10;;;;;;;58.90;4.10;;;;;;;;;;5082575;28;20476;-84
2024/03/23 03:28:37;;;;;;;56.67;3.60;;;;;;;;;;5084882;28;20436;-85
2024/03/23 03:31:04;;;;;;;58.40;4.07;;;;;;;;;;5093179;28;20540;-85
2024/03/23 03:33:32;;;;;;;57.47;4.20;;;;;;;;;;5090903;28;20439;-84
2024/03/23 03:35:59;;;;;;;58.77;3.90;;;;;;;;;;5088079;28;20463;-84
2024/03/23 03:38:26;;;;;;;58.73;3.23;;;;;;;;;;5081976;28;20436;-84
2024/03/23 03:40:53;;;;;;;56.83;3.30;;;;;;;;;;5092763;28;20516;-84
2024/03/23 03:43:20;;;;;;;57.57;3.73;;;;;;;;;;5089042;28;20465;-84
2024/03/23 03:45:52;;;;;;;57.10;3.50;;;;;;;;;;5095732;28;20827;-85
2024/03/23 03:48:19;;;;;;;57.70;3.50;;;;;;;;;;5082923;28;20428;-84
2024/03/23 03:50:46;;;;;;;58.00;4.07;;;;;;;;;;5092250;28;20487;-84
2024/03/23 03:53:14;;;;;;;58.37;4.10;;;;;;;;;;5083952;28;20474;-84
2024/03/23 03:55:40;;;;;;;57.90;3.20;;;;;;;;;;5091588;28;20467;-85
2024/03/23 03:58:07;;;;;;;57.27;3.73;;;;;;;;;;5078772;28;20447;-85
2024/03/23 04:00:34;;;;;;;57.70;4.43;;;;;;;;;;5080619;28;20444;-84
2024/03/23 04:03:01;;;;;;;56.80;3.70;;;;;;;;;;5091974;28;21087;-84
2024/03/23 04:05:27;;;;;;;57.70;4.27;;;;;;;;;;5084071;28;20468;-85
2024/03/23 04:07:56;;;;;;;60.63;3.67;;;;;;;;;;5084702;28;20804;-84
2024/03/23 04:10:22;;;;;;;58.53;3.90;;;;;;;;;;5091029;28;20497;-85
2024/03/23 04:12:50;;;;;;;57.47;4.07;;;;;;;;;;5092428;28;20518;-84
2024/03/23 04:15:16;;;;;;;56.53;3.40;;;;;;;;;;5091694;28;20556;-84
2024/03/23 04:17:44;;;;;;;56.80;3.33;;;;;;;;;;5091517;28;20431;-84
2024/03/23 04:20:11;;;;;;;56.90;3.50;;;;;;;;;;5078993;28;20447;-84
2024/03/23 04:22:38;;;;;;;56.53;3.30;;;;;;;;;;5095176;28;20446;-84
2024/03/23 04:25:06;;;;;;;56.83;3.33;;;;;;;;;;5085733;28;20446;-84
2024/03/23 04:27:33;;;;;;;58.90;3.50;;;;;;;;;;5086979;28;20451;-85
2024/03/23 04:30:01;;;;;;;58.70;3.80;;;;;;;;;;5096810;28;20559;-85
2024/03/23 04:32:28;;;;;;;58.00;3.40;;;;;;;;;;5099104;28;20442;-84
2024/03/23 04:34:56;;;;;;;56.30;3.60;;;;;;;;;;5087865;28;20443;-84
2024/03/23 04:37:23;;;;;;;57.90;3.60;;;;;;;;;;5090313;28;20943;-85
2024/03/23 04:39:50;;;;;;;61.00;3.80;;;;;;;;;;5084842;28;20835;-85
2024/03/23 04:42:18;;;;;;;58.57;4.03;;;;;;;;;;5087087;28;20431;-83
2024/03/23 04:44:45;;;;;;;57.90;4.63;;;;;;;;;;5086518;28;21006;-81
2024/03/23 04:47:12;;;;;;;58.27;4.90;;;;;;;;;;5078293;28;20450;-82
2024/03/23 04:49:40;;;;;;;58.50;4.87;;;;;;;;;;5086808;28;20524;-84
2024/03/23 04:52:07;;;;;;;57.60;4.97;;;;;;;;;;5084640;28;20890;-85
2024/03/23 04:54:34;;;;;;;60.23;6.37;;;;;;;;;;5084215;28;20847;-85
2024/03/23 04:57:02;;;;;;;61.43;6.70;;;;;;;;;;5083694;28;20456;-84
2024/03/23 04:59:29;;;;;;;60.90;7.33;;;;;;;;;;5089643;28;20452;-85
2024/03/23 05:01:57;;;;;;;64.13;9.43;;;;;;;;;;5096505;28;20474;-85
2024/03/23 05:04:23;;;;;;;63.57;9.57;;;;;;;;;;5083618;28;21027;-85
2024/03/23 05:06:51;;;;;;;63.10;9.17;;;;;;;;;;5093061;28;20456;-85
2024/03/23 05:09:17;;;;;;;64.07;9.70;;;;;;;;;;5088338;28;20447;-84
2024/03/23 05:11:44;;;;;;;66.57;9.80;;;;;;;;;;5096745;28;20446;-84
2024/03/23 05:14:11;;;;;;;67.37;11.50;;;;;;;;;;5088651;28;20437;-84
2024/03/23 05:16:40;;;;;;;63.83;10.70;;;;;;;;;;5089248;28;20523;-85
2024/03/23 05:19:06;;;;;;;68.80;10.17;;;;;;;;;;5077252;28;20506;-85
2024/03/23 05:21:34;;;;;;;66.00;10.90;;;;;;;;;;5082550;28;20863;-85
2024/03/23 05:24:00;;;;;;;66.00;11.40;;;;;;;;;;5096727;28;20454;-84
2024/03/23 05:26:28;;;;;;;66.30;12.20;;;;;;;;;;5091778;28;20808;-84
2024/03/23 05:28:54;;;;;;;73.87;13.77;;;;;;;;;;5093633;28;21044;-84
2024/03/23 05:31:25;;;;;;;72.57;13.37;;;;;;;;;;5085375;28;20479;-84
2024/03/23 05:33:53;;;;;;;69.40;13.80;;;;;;;;;;5085904;28;20440;-85
2024/03/23 05:36:20;;;;;;;71.13;14.00;;;;;;;;;;5085259;28;20456;-84
2024/03/23 05:38:46;;;;;;;70.10;12.87;;;;;;;;;;5085918;28;20517;-85
2024/03/23 05:41:13;;;;;;;70.60;13.90;;;;;;;;;;5086373;28;20811;-85
2024/03/23 05:43:40;;;;;;;68.23;13.17;;;;;;;;;;5092720;28;20473;-85
2024/03/23 05:46:07;;;;;;;71.50;15.27;;;;;;;;;;5087915;28;20944;-86
2024/03/23 05:48:34;;;;;;;69.70;13.37;;;;;;;;;;5091282;28;20454;-86
2024/03/23 05:51:02;;;;;;;67.90;12.50;;;;;;;;;;5089405;28;20471;-85
2024/03/23 05:53:30;;;;;;;70.37;13.27;;;;;;;;;;5089412;28;20457;-85
2024/03/23 05:56:03;;;;;;;67.87;10.97;;;;;;;;;;5081064;28;20503;-84
2024/03/23 05:58:29;;;;;;;65.03;8.83;;;;;;;;;;5083487;28;20486;-85
2024/03/23 06:01:00;;;;;;;62.10;8.33;;;;;;;;;;5086815;28;20466;-83
2024/03/23 06:03:26;;;;;;;61.53;7.23;;;;;;;;;;5093149;28;20445;-86
2024/03/23 06:05:54;;;;;;;63.00;7.20;;;;;;;;;;5094189;28;20466;-84
2024/03/23 06:08:21;;;;;;;61.63;7.20;;;;;;;;;;5085050;28;20468;-85
2024/03/23 06:10:50;;;;;;;60.67;5.90;;;;;;;;;;5084825;28;20533;-84
2024/03/23 06:13:16;;;;;;;61.43;7.00;;;;;;;;;;5085223;28;20456;-85
2024/03/23 06:15:45;;;;;;;63.53;6.20;;;;;;;;;;5085389;28;20588;-83
2024/03/23 06:18:12;;;;;;;65.20;6.83;;;;;;;;;;5085932;28;20436;-85
2024/03/23 06:20:39;;;;;;;61.40;5.93;;;;;;;;;;5086039;28;20861;-83
2024/03/23 06:23:06;;;;;;;59.67;5.80;;;;;;;;;;5079046;28;20452;-84
2024/03/23 06:25:34;;;;;;;58.63;5.00;;;;;;;;;;5097230;28;20451;-83
2024/03/23 06:28:02;;;;;;;59.17;5.50;;;;;;;;;;5092857;28;20436;-84
2024/03/23 06:30:30;;;;;;;61.90;6.40;;;;;;;;;;5087673;28;20571;-85
2024/03/23 06:32:56;;;;;;;59.37;5.17;;;;;;;;;;5097940;28;20469;-85
2024/03/23 06:35:23;;;;;;;59.43;5.33;;;;;;;;;;5091232;28;21000;-84
2024/03/23 06:37:50;;;;;;;58.63;4.83;;;;;;;;;;5092998;28;20431;-85
2024/03/23 06:40:17;;;;;;;59.50;4.67;;;;;;;;;;5092360;28;20438;-85
2024/03/23 06:42:44;;;;;;;58.10;4.40;;;;;;;;;;5085850;28;20478;-85
2024/03/23 06:45:12;;;;;;;59.40;4.70;;;;;;;;;;5092782;28;20841;-86
2024/03/23 06:47:38;;;;;;;57.70;3.70;;;;;;;;;;5086450;28;20458;-85
2024/03/23 06:50:06;;;;;;;57.40;3.70;;;;;;;;;;5096314;28;20501;-84
2024/03/23 06:52:32;;;;;;;58.57;3.60;;;;;;;;;;5087584;28;20436;-84
2024/03/23 06:54:59;;;;;;;57.33;3.73;;;;;;;;;;5097066;28;20447;-86
2024/03/23 06:57:25;;;;;;;56.20;3.00;;;;;;;;;;5099376;28;20456;-85
2024/03/23 06:59:54;;;;;;;55.93;3.00;;;;;;;;;;5090689;28;20534;-86
2024/03/23 07:02:20;;;;;;;57.33;3.50;;;;;;;;;;5090320;28;20435;-85
2024/03/23 07:04:47;;;;;;;56.57;2.90;;;;;;;;;;5081804;28;20436;-85
2024/03/23 07:07:14;;;;;;;57.17;2.87;;;;;;;;;;5096306;28;20431;-85
2024/03/23 07:09:41;;;;;;;56.00;2.60;;;;;;;;;;5091807;28;20428;-84
2024/03/23 07:12:07;;;;;;;56.60;2.83;;;;;;;;;;5095468;28;20566;-85
2024/03/23 07:14:35;;;;;;;56.30;2.70;;;;;;;;;;5087016;28;20463;-84
2024/03/23 07:17:02;;;;;;;56.20;2.40;;;;;;;;;;5099698;28;20485;-85
2024/03/23 07:19:29;;;;;;;56.23;2.80;;;;;;;;;;5096750;28;20432;-85
2024/03/23 07:21:56;;;;;;;56.37;2.73;;;;;;;;;;5087754;28;20440;-86
2024/03/23 07:24:23;;;;;;;56.33;2.93;;;;;;;;;;5094352;28;20827;-87
2024/03/23 07:26:51;;;;;;;56.07;2.97;;;;;;;;;;5082750;28;20456;-86
2024/03/23 07:29:18;;;;;;;56.27;2.50;;;;;;;;;;5094833;28;20444;-85
2024/03/23 07:31:45;;;;;;;56.13;2.70;;;;;;;;;;5091553;28;21044;-85
2024/03/23 07:34:13;;;;;;;56.47;2.90;;;;;;;;;;5097551;28;20931;-85
2024/03/23 07:36:39;;;;;;;56.77;2.70;;;;;;;;;;5090042;28;20474;-86
2024/03/23 07:39:07;;;;;;;55.47;2.20;;;;;;;;;;5090978;28;20467;-86
2024/03/23 07:41:35;;;;;;;56.00;2.30;;;;;;;;;;5085581;28;20440;-85
2024/03/23 07:44:02;;;;;;;55.93;2.30;;;;;;;;;;5086914;28;20460;-86
2024/03/23 07:46:28;;;;;;;55.70;2.30;;;;;;;;;;5092129;28;20524;-85
2024/03/23 07:48:56;;;;;;;55.70;2.37;;;;;;;;;;5099316;28;20462;-85
2024/03/23 07:51:23;;;;;;;55.53;2.47;;;;;;;;;;5093666;28;20536;-85
2024/03/23 07:53:52;;;;;;;56.00;2.40;;;;;;;;;;5091621;28;20477;-85
2024/03/23 07:56:19;;;;;;;55.80;2.33;;;;;;;;;;5097442;28;20476;-86
2024/03/23 07:58:47;;;;;;;55.90;2.10;;;;;;;;;;5089175;28;20452;-86
2024/03/23 08:01:14;;;;;;;55.40;2.30;;;;;;;;;;5088034;28;20442;-85
2024/03/23 08:03:42;;;;;;;56.00;2.20;;;;;;;;;;5086266;28;20444;-86
2024/03/23 08:06:09;;;;;;;57.60;2.40;;;;;;;;;;5091614;28;20485;-85
2024/03/23 08:08:37;;;;;;;56.53;2.50;;;;;;;;;;5079831;28;20490;-85
2024/03/23 08:11:04;;;;;;;55.87;2.80;;;;;;;;;;5088851;28;20516;-85
2024/03/23 08:13:32;;;;;;;56.40;2.97;;;;;;;;;;5104604;28;20492;-85
2024/03/23 08:15:58;;;;;;;55.47;2.17;;;;;;;;;;5097902;28;20456;-82
2024/03/23 08:18:25;;;;;;;56.30;2.63;;;;;;;;;;5085770;28;20791;-85
2024/03/23 08:20:58;;;;;;;55.57;2.70;;;;;;;;;;5095499;28;20439;-84
2024/03/23 08:23:25;;;;;;;57.03;2.80;;;;;;;;;;5090826;28;20830;-85
2024/03/23 08:25:53;;;;;;;56.07;2.47;;;;;;;;;;5089766;28;20513;-85
2024/03/23 08:28:20;;;;;;;55.70;2.30;;;;;;;;;;5105155;28;20518;-85
2024/03/23 08:30:50;;;;;;;56.30;2.30;;;;;;;;;;5096919;28;20483;-86
2024/03/23 08:33:17;;;;;;;55.50;2.37;;;;;;;;;;5104212;28;20457;-87
2024/03/23 08:35:43;;;;;;;56.00;2.70;;;;;;;;;;5103374;28;20463;-86
2024/03/23 08:38:10;;;;;;;55.90;2.33;;;;;;;;;;5109165;28;20428;-86
2024/03/23 08:40:37;;;;;;;55.67;2.30;;;;;;;;;;5101553;28;20447;-85
2024/03/23 08:43:05;;;;;;;55.70;2.50;;;;;;;;;;5108007;28;20443;-86
2024/03/23 08:45:32;;;;;;;55.60;2.03;;;;;;;;;;5102948;28;20537;-84
2024/03/23 08:47:59;;;;;;;55.60;2.27;;;;;;;;;;5093176;28;20428;-85
2024/03/23 08:50:25;;;;;;;55.87;2.50;;;;;;;;;;5093657;28;20475;-86
2024/03/23 08:52:52;;;;;;;55.63;2.23;;;;;;;;;;5100059;28;20444;-84
2024/03/23 08:55:18;;;;;;;57.87;3.03;;;;;;;;;;5090287;28;20517;-85
2024/03/23 08:57:46;;;;;;;56.80;2.60;;;;;;;;;;5098697;28;20449;-85
2024/03/23 09:00:14;;;;;;;56.40;2.97;;;;;;;;;;5097807;28;20504;-85
2024/03/23 09:02:41;;;;;;;56.60;2.57;;;;;;;;;;5096386;28;20510;-85
2024/03/23 09:05:08;;;;;;;55.70;2.40;;;;;;;;;;5105840;28;20482;-84
2024/03/23 09:07:35;;;;;;;58.30;2.57;;;;;;;;;;5109560;28;20465;-84
2024/03/23 09:10:01;;;;;;;57.90;2.90;;;;;;;;;;5101742;28;20916;-84
2024/03/23 09:12:29;;;;;;;59.73;3.10;;;;;;;;;;5109252;28;20844;-85
2024/03/23 09:14:55;;;;;;;58.40;3.10;;;;;;;;;;5102527;28;20496;-83
2024/03/23 09:17:23;;;;;;;58.93;3.00;;;;;;;;;;5095201;28;20435;-83
2024/03/23 09:19:50;;;;;;;58.30;3.10;;;;;;;;;;5090572;28;20508;-82
2024/03/23 09:22:17;;;;;;;57.30;3.10;;;;;;;;;;5104534;28;20443;-85
2024/03/23 09:24:43;;;;;;;58.37;3.17;;;;;;;;;;5107672;28;20501;-84
2024/03/23 09:27:10;;;;;;;57.70;3.83;;;;;;;;;;5094699;28;20452;-84
2024/03/23 09:29:37;;;;;;;60.17;3.10;;;;;;;;;;5084907;28;20498;-84
2024/03/23 09:32:04;;;;;;;58.13;4.20;;;;;;;;;;5094038;28;20486;-84
2024/03/23 09:34:32;;;;;;;57.00;3.57;;;;;;;;;;5090042;28;20552;-83
2024/03/23 09:36:59;;;;;;;60.87;4.70;;;;;;;;;;5097447;28;20455;-84
2024/03/23 09:39:25;;;;;;;59.23;3.70;;;;;;;;;;5096406;28;20453;-83
2024/03/23 09:41:52;;;;;;;57.77;3.60;;;;;;;;;;5096869;28;20450;-84
2024/03/23 09:44:19;;;;;;;58.50;3.97;;;;;;;;;;5096632;28;20446;-84
2024/03/23 09:46:46;;;;;;;60.17;4.30;;;;;;;;;;5096827;28;20481;-84
2024/03/23 09:49:12;;;;;;;57.97;4.50;;;;;;;;;;5096555;28;20493;-83
2024/03/23 09:51:41;;;;;;;59.80;4.37;;;;;;;;;;5096305;28;20912;-83
2024/03/23 09:54:07;;;;;;;59.17;3.97;;;;;;;;;;5079200;28;20497;-83
2024/03/23 09:56:34;;;;;;;57.50;4.10;;;;;;;;;;5076568;28;20484;-84
2024/03/23 09:59:01;;;;;;;63.30;4.07;;;;;;;;;;5076354;28;20471;-84
2024/03/23 10:01:30;;;;;;;60.47;3.90;;;;;;;;;;5099110;28;20533;-84
2024/03/23 10:03:57;;;;;;;60.87;4.30;;;;;;;;;;5082742;28;20439;-84
2024/03/23 10:06:25;;;;;;;61.13;4.00;;;;;;;;;;5095771;28;20483;-83
2024/03/23 10:08:54;;;;;;;61.17;4.40;;;;;;;;;;5090013;28;20444;-84
2024/03/23 10:11:22;;;;;;;57.77;4.17;;;;;;;;;;5096225;28;20497;-84
2024/03/23 10:13:48;;;;;;;60.10;4.10;;;;;;;;;;5098485;28;20439;-84
2024/03/23 10:16:22;;;;;;;59.40;3.97;;;;;;;;;;5087791;28;20516;-85
2024/03/23 10:18:49;;;;;;;61.33;4.10;;;;;;;;;;5085671;28;20438;-87
2024/03/23 10:21:17;;;;;;;63.33;4.17;;;;;;;;;;5094435;28;20620;-85
2024/03/23 10:23:44;;;;;;;60.30;4.10;;;;;;;;;;5089286;28;20443;-87
2024/03/23 10:26:21;;;;;;;58.17;4.07;;;;;;;;;;5085684;28;20490;-88
2024/03/23 10:28:54;;;;;;;61.10;3.93;;;;;;;;;;5088823;28;20937;-85
2024/03/23 10:31:21;;;;;;;58.57;3.60;;;;;;;;;;5094508;28;20475;-87
2024/03/23 10:33:49;;;;;;;57.77;3.33;;;;;;;;;;5068240;28;20450;-89
2024/03/23 10:36:17;;;;;;;62.60;3.80;;;;;;;;;;5096089;28;20542;-85
2024/03/23 10:38:43;;;;;;;62.07;4.00;;;;;;;;;;5094740;28;20474;-84
2024/03/23 10:41:11;;;;;;;60.97;4.47;;;;;;;;;;5097154;28;20442;-84
2024/03/23 10:43:39;;;;;;;61.17;4.70;;;;;;;;;;5088863;28;20939;-85
2024/03/23 10:46:06;;;;;;;57.37;3.40;;;;;;;;;;5090198;28;20483;-85
2024/03/23 10:48:33;;;;;;;60.60;3.07;;;;;;;;;;5090339;28;20469;-83
2024/03/23 10:51:00;;;;;;;62.23;3.80;;;;;;;;;;5089954;28;21093;-84
2024/03/23 10:53:27;;;;;;;59.50;4.07;;;;;;;;;;5089597;28;20984;-83
2024/03/23 10:55:55;;;;;;;62.70;4.67;;;;;;;;;;5089626;28;20455;-84
2024/03/23 10:58:24;;;;;;;62.90;4.20;;;;;;;;;;5087518;28;20447;-86
2024/03/23 11:00:53;;;;;;;61.00;3.80;;;;;;;;;;5091733;28;20451;-84
2024/03/23 11:03:33;;;;;;;58.70;5.20;;;;;;;;;;5089331;28;20531;-86
2024/03/23 11:06:01;;;;;;;64.40;5.83;;;;;;;;;;5081604;28;20474;-86
2024/03/23 11:08:36;;;;;;;62.43;4.90;;;;;;;;;;5084573;28;20951;-83
2024/03/23 11:11:16;;;;;;;61.20;5.30;;;;;;;;;;5084165;28;20527;-87
2024/03/23 11:13:43;;;;;;;60.90;5.90;;;;;;;;;;5091474;28;20864;-83
2024/03/23 11:16:24;;;;;;;67.90;6.40;;;;;;;;;;5085340;28;20460;-85
2024/03/23 11:18:50;;;;;;;59.63;6.37;;;;;;;;;;5092051;28;20514;-84
2024/03/23 11:21:32;;;;;;;60.03;5.63;;;;;;;;;;5093317;28;20436;-83
2024/03/23 11:24:13;;;;;;;59.37;5.27;;;;;;;;;;5079689;28;20507;-82
2024/03/23 11:26:41;;;;;;;61.23;5.57;;;;;;;;;;5090874;28;20452;-86
2024/03/23 11:29:10;;;;;;;60.20;5.40;;;;;;;;;;5080136;28;20448;-85
2024/03/23 11:31:40;;;;;;;62.77;4.70;;;;;;;;;;5080165;28;20478;-86
2024/03/23 11:34:06;;;;;;;62.23;4.70;;;;;;;;;;5084556;28;20473;-86
2024/03/23 11:36:34;;;;;;;59.17;4.57;;;;;;;;;;5094962;28;20452;-85
2024/03/23 11:39:13;;;;;;;58.27;4.50;;;;;;;;;;5093318;28;20488;-85
2024/03/23 11:41:46;;;;;;;57.60;3.73;;;;;;;;;;5083439;28;20801;-85
2024/03/23 11:44:16;;;;;;;57.73;3.23;;;;;;;;;;5088988;28;20423;-86
2024/03/23 11:46:45;;;;;;;58.50;3.40;;;;;;;;;;5089621;28;20854;-86
2024/03/23 11:49:23;;;;;;;59.77;3.77;;;;;;;;;;5090411;28;20431;-85
2024/03/23 11:51:51;;;;;;;57.77;3.50;;;;;;;;;;5082132;28;20483;-86
2024/03/23 11:54:20;;;;;;;58.70;3.90;;;;;;;;;;5085229;28;20446;-86
2024/03/23 11:57:07;;;;;;;57.27;3.70;;;;;;;;;;5087392;28;20462;-86
2024/03/23 11:59:34;;;;;;;58.50;3.67;;;;;;;;;;5076092;28;20513;-85
2024/03/23 12:02:07;;;;;;;58.07;3.50;;;;;;;;;;5084386;28;20450;-86
2024/03/23 12:04:35;;;;;;;57.57;3.13;;;;;;;;;;5088051;28;20958;-86
2024/03/23 12:07:12;;;;;;;61.57;4.23;;;;;;;;;;5089470;28;20665;-86
2024/03/23 12:09:39;;;;;;;57.90;3.40;;;;;;;;;;5080400;28;20926;-86
2024/03/23 12:12:10;;;;;;;57.87;3.60;;;;;;;;;;5088844;28;20551;-86
2024/03/23 12:14:36;;;;;;;57.17;3.27;;;;;;;;;;5080170;28;20439;-86
2024/03/23 12:17:15;;;;;;;58.13;3.20;;;;;;;;;;5088581;28;20462;-86
2024/03/23 12:19:41;;;;;;;57.10;3.30;;;;;;;;;;5080739;28;20454;-87
2024/03/23 12:22:09;;;;;;;58.37;3.33;;;;;;;;;;5090487;28;20451;-86
2024/03/23 12:24:36;;;;;;;58.07;3.10;;;;;;;;;;5098954;28;20515;-88
2024/03/23 12:27:03;;;;;;;58.60;3.67;;;;;;;;;;5087013;28;20479;-88
2024/03/23 12:29:31;;;;;;;64.47;4.60;;;;;;;;;;5086498;28;20499;-89
2024/03/23 12:31:57;;;;;;;56.70;2.90;;;;;;;;;;5087314;28;20485;-88
2024/03/23 12:34:26;;;;;;;60.70;3.87;;;;;;;;;;5077335;28;20562;-86
2024/03/23 12:36:52;;;;;;;59.43;3.07;;;;;;;;;;5083437;28;20486;-88
2024/03/23 12:39:20;;;;;;;59.10;3.23;;;;;;;;;;5083418;28;20442;-87
2024/03/23 12:41:46;;;;;;;57.47;2.93;;;;;;;;;;5088216;28;20486;-87
2024/03/23 12:44:15;;;;;;;57.20;2.60;;;;;;;;;;5086754;28;20443;-87
2024/03/23 12:46:41;;;;;;;58.37;3.10;;;;;;;;;;5087678;28;20461;-87
2024/03/23 12:49:08;;;;;;;60.20;3.07;;;;;;;;;;5088165;28;20437;-86
2024/03/23 12:51:36;;;;;;;58.83;3.40;;;;;;;;;;5092760;28;20471;-86
2024/03/23 12:54:03;;;;;;;62.40;3.50;;;;;;;;;;5086527;28;20444;-86
2024/03/23 12:56:30;;;;;;;60.07;3.80;;;;;;;;;;5094749;28;20459;-85
2024/03/23 12:58:57;;;;;;;59.40;3.40;;;;;;;;;;5086687;28;20626;-85
2024/03/23 13:01:24;;;;;;;58.77;3.47;;;;;;;;;;5097552;28;20441;-85
2024/03/23 13:03:51;;;;;;;61.60;3.63;;;;;;;;;;5093139;28;20459;-85
2024/03/23 13:06:18;;;;;;;60.87;5.50;;;;;;;;;;5082766;28;20468;-85
2024/03/23 13:08:47;;;;;;;58.57;3.30;;;;;;;;;;5096074;28;20439;-85
2024/03/23 13:11:13;;;;;;;58.63;3.47;;;;;;;;;;5099668;28;20427;-85
2024/03/23 13:13:41;;;;;;;60.83;4.50;;;;;;;;;;5082635;28;20462;-85
2024/03/23 13:16:08;;;;;;;62.97;3.80;;;;;;;;;;5087052;28;20486;-86
2024/03/23 13:18:35;;;;;;;58.70;4.07;;;;;;;;;;5083732;28;20430;-87
2024/03/23 13:21:02;;;;;;;58.77;3.30;;;;;;;;;;5082513;28;20432;-86
2024/03/23 13:23:30;;;;;;;59.30;3.67;;;;;;;;;;5083946;28;20439;-86
2024/03/23 13:25:58;;;;;;;58.30;3.13;;;;;;;;;;5088935;28;20527;-87
2024/03/23 13:28:25;;;;;;;59.60;3.27;;;;;;;;;;5086844;28;20451;-88
2024/03/23 13:30:52;;;;;;;58.37;3.57;;;;;;;;;;5087344;28;20443;-86
2024/03/23 13:33:19;;;;;;;62.63;3.20;;;;;;;;;;5077958;28;20476;-86
2024/03/23 13:35:52;;;;;;;59.27;3.20;;;;;;;;;;5090603;28;20455;-90
2024/03/23 13:38:19;;;;;;;60.63;3.30;;;;;;;;;;5097042;28;20439;-90
2024/03/23 13:40:52;;;;;;;61.73;3.20;;;;;;;;;;5096568;28;20534;-90
2024/03/23 13:43:21;;;;;;;58.57;3.50;;;;;;;;;;5096766;28;20450;-89
2024/03/23 13:45:48;;;;;;;57.60;2.70;;;;;;;;;;5100039;28;20467;-91
2024/03/23 13:48:16;;;;;;;61.67;3.13;;;;;;;;;;5099724;28;20455;-91
2024/03/23 13:50:42;;;;;;;57.80;2.70;;;;;;;;;;5101539;28;20875;-92
2024/03/23 13:53:10;;;;;;;61.47;3.83;;;;;;;;;;5097933;28;20486;-93
2024/03/23 13:55:36;;;;;;;60.03;3.33;;;;;;;;;;5088189;28;20459;-92
2024/03/23 13:58:04;;;;;;;58.57;2.63;;;;;;;;;;5096816;28;20485;-90
2024/03/23 14:00:32;;;;;;;57.40;2.87;;;;;;;;;;5077621;28;20451;-90
2024/03/23 14:03:00;;;;;;;63.50;3.80;;;;;;;;;;5082736;28;20458;-90
2024/03/23 14:05:26;;;;;;;57.53;2.63;;;;;;;;;;5095695;28;20470;-87
2024/03/23 14:07:53;;;;;;;57.90;3.30;;;;;;;;;;5082999;28;20464;-86
2024/03/23 14:10:19;;;;;;;57.47;3.20;;;;;;;;;;5083906;28;20448;-85
2024/03/23 14:12:46;;;;;;;58.90;3.80;;;;;;;;;;5092188;28;20497;-85
2024/03/23 14:15:13;;;;;;;63.70;3.20;;;;;;;;;;5084738;28;20490;-84
2024/03/23 14:17:41;;;;;;;60.90;3.40;;;;;;;;;;5089143;28;20439;-83
2024/03/23 14:20:11;;;;;;;59.40;3.50;;;;;;;;;;5095479;28;20446;-85
2024/03/23 14:22:38;;;;;;;58.60;3.33;;;;;;;;;;5093588;28;20442;-84
2024/03/23 14:25:04;;;;;;;56.90;3.50;;;;;;;;;;5099572;28;20455;-82
2024/03/23 14:27:32;;;;;;;60.40;4.20;;;;;;;;;;5097439;28;20435;-83
2024/03/23 14:29:58;;;;;;;57.90;3.60;;;;;;;;;;5088318;28;20448;-84
2024/03/23 14:32:25;;;;;;;56.88;3.08;;;;;;;;;;5088171;28;20504;-84